sensor_id;sensor_type;location;lat;lon;timestamp;pressure;altitude;pressure_sealevel;temperature;humidity
3434;BME280;1730;41.932;25.548;2023-05-08T00:00:36;99514.06;;;14.41;100.00
3434;BME280;1730;41.932;25.548;2023-05-08T00:03:03;99508.03;;;14.62;100.00
3434;BME280;1730;41.932;25.548;2023-05-08T00:05:29;99476.03;;;14.49;100.00
3434;BME280;1730;41.932;25.548;2023-05-08T00:07:54;99496.91;;;14.40;100.00
3434;BME280;1730;41.932;25.548;2023-05-08T00:10:26;99496.59;;;14.35;100.00
3434;BME280;1730;41.932;25.548;2023-05-08T00:12:52;99480.56;;;14.65;100.00
3434;BME280;1730;41.932;25.548;2023-05-08T00:15:17;98966.44;;;11.28;100.00
3434;BME280;1730;41.932;25.548;2023-05-08T00:17:43;99483.34;;;14.32;100.00
3434;BME280;1730;41.932;25.548;2023-05-08T00:20:09;99237.56;;;12.82;100.00
3434;BME280;1730;41.932;25.548;2023-05-08T00:22:34;99490.16;;;14.28;100.00
3434;BME280;1730;41.932;25.548;2023-05-08T00:25:00;99478.62;;;14.18;100.00
3434;BME280;1730;41.932;25.548;2023-05-08T00:27:26;99496.16;;;13.99;100.00
3434;BME280;1730;41.932;25.548;2023-05-08T00:29:51;99479.38;;;13.96;100.00
3434;BME280;1730;41.932;25.548;2023-05-08T00:32:16;99383.44;;;13.34;100.00
3434;BME280;1730;41.932;25.548;2023-05-08T00:34:42;99057.41;;;11.36;100.00
3434;BME280;1730;41.932;25.548;2023-05-08T00:37:07;99502.41;;;14.00;100.00
3434;BME280;1730;41.932;25.548;2023-05-08T00:39:33;99488.31;;;14.21;100.00
3434;BME280;1730;41.932;25.548;2023-05-08T00:41:58;99509.72;;;13.51;100.00
3434;BME280;1730;41.932;25.548;2023-05-08T00:44:25;99381.84;;;12.91;100.00
3434;BME280;1730;41.932;25.548;2023-05-08T00:46:51;99402.50;;;12.92;100.00
3434;BME280;1730;41.932;25.548;2023-05-08T00:49:16;99502.75;;;13.89;100.00
3434;BME280;1730;41.932;25.548;2023-05-08T00:51:43;99504.13;;;13.77;100.00
3434;BME280;1730;41.932;25.548;2023-05-08T00:54:10;99540.03;;;13.63;100.00
3434;BME280;1730;41.932;25.548;2023-05-08T00:56:37;99521.56;;;13.74;100.00
3434;BME280;1730;41.932;25.548;2023-05-08T00:59:06;99521.22;;;13.45;100.00
3434;BME280;1730;41.932;25.548;2023-05-08T01:01:33;99485.16;;;12.78;100.00
3434;BME280;1730;41.932;25.548;2023-05-08T01:04:02;99099.94;;;10.32;100.00
3434;BME280;1730;41.932;25.548;2023-05-08T01:06:28;99575.38;;;12.95;100.00
3434;BME280;1730;41.932;25.548;2023-05-08T01:08:54;99543.87;;;12.18;100.00
3434;BME280;1730;41.932;25.548;2023-05-08T01:33:26;99675.09;;;12.12;100.00
3434;BME280;1730;41.932;25.548;2023-05-08T01:36:17;99673.37;;;12.29;100.00
3434;BME280;1730;41.932;25.548;2023-05-08T01:38:52;99264.88;;;9.90;100.00
3434;BME280;1730;41.932;25.548;2023-05-08T01:41:25;99684.19;;;12.29;100.00
3434;BME280;1730;41.932;25.548;2023-05-08T01:44:11;99700.75;;;12.08;100.00
3434;BME280;1730;41.932;25.548;2023-05-08T01:46:38;99710.94;;;12.14;100.00
3434;BME280;1730;41.932;25.548;2023-05-08T01:49:41;99716.66;;;12.11;100.00
3434;BME280;1730;41.932;25.548;2023-05-08T01:52:13;99732.00;;;12.29;100.00
3434;BME280;1730;41.932;25.548;2023-05-08T01:54:49;99725.84;;;12.01;100.00
3434;BME280;1730;41.932;25.548;2023-05-08T01:57:17;99742.13;;;11.91;100.00
3434;BME280;1730;41.932;25.548;2023-05-08T01:59:44;99598.69;;;10.95;100.00
3434;BME280;1730;41.932;25.548;2023-05-08T02:02:11;99714.47;;;11.52;100.00
3434;BME280;1730;41.932;25.548;2023-05-08T02:04:38;99768.56;;;11.97;100.00
3434;BME280;1730;41.932;25.548;2023-05-08T02:07:06;99771.94;;;11.72;100.00
3434;BME280;1730;41.932;25.548;2023-05-08T02:09:32;99628.91;;;10.71;100.00
3434;BME280;1730;41.932;25.548;2023-05-08T02:11:59;99802.37;;;11.74;100.00
3434;BME280;1730;41.932;25.548;2023-05-08T02:14:26;99813.06;;;11.76;100.00
3434;BME280;1730;41.932;25.548;2023-05-08T02:16:54;99811.63;;;11.71;100.00
3434;BME280;1730;41.932;25.548;2023-05-08T02:19:22;99694.09;;;11.03;100.00
3434;BME280;1730;41.932;25.548;2023-05-08T02:21:49;99738.12;;;11.41;100.00
3434;BME280;1730;41.932;25.548;2023-05-08T02:24:16;99793.41;;;12.01;100.00
3434;BME280;1730;41.932;25.548;2023-05-08T02:26:43;99774.09;;;11.96;100.00
3434;BME280;1730;41.932;25.548;2023-05-08T02:29:09;99776.00;;;11.86;100.00
3434;BME280;1730;41.932;25.548;2023-05-08T02:31:35;99776.00;;;11.86;100.00
3434;BME280;1730;41.932;25.548;2023-05-08T02:34:03;99788.44;;;11.69;100.00
3434;BME280;1730;41.932;25.548;2023-05-08T02:36:29;99759.75;;;11.31;100.00
3434;BME280;1730;41.932;25.548;2023-05-08T02:38:58;99699.53;;;10.94;100.00
3434;BME280;1730;41.932;25.548;2023-05-08T02:41:27;99826.03;;;11.62;100.00
3434;BME280;1730;41.932;25.548;2023-05-08T02:43:54;99816.09;;;11.53;100.00
3434;BME280;1730;41.932;25.548;2023-05-08T02:46:32;99817.47;;;11.67;100.00
3434;BME280;1730;41.932;25.548;2023-05-08T02:49:12;99823.31;;;11.62;100.00
3434;BME280;1730;41.932;25.548;2023-05-08T02:51:59;99804.66;;;11.69;100.00
3434;BME280;1730;41.932;25.548;2023-05-08T03:00:03;99771.41;;;11.96;100.00
3434;BME280;1730;41.932;25.548;2023-05-08T03:02:37;99756.87;;;11.97;100.00
3434;BME280;1730;41.932;25.548;2023-05-08T03:05:13;99753.94;;;11.90;100.00
3434;BME280;1730;41.932;25.548;2023-05-08T03:07:40;99767.88;;;11.58;100.00
3434;BME280;1730;41.932;25.548;2023-05-08T03:10:10;99786.31;;;11.72;100.00
3434;BME280;1730;41.932;25.548;2023-05-08T03:12:40;99608.06;;;10.63;100.00
3434;BME280;1730;41.932;25.548;2023-05-08T03:15:18;99786.03;;;11.29;100.00
3434;BME280;1730;41.932;25.548;2023-05-08T03:17:47;99588.44;;;10.15;100.00
3434;BME280;1730;41.932;25.548;2023-05-08T03:20:18;99824.56;;;11.31;100.00
3434;BME280;1730;41.932;25.548;2023-05-08T03:22:44;99843.59;;;11.20;100.00
3434;BME280;1730;41.932;25.548;2023-05-08T03:25:12;99711.59;;;10.33;100.00
3434;BME280;1730;41.932;25.548;2023-05-08T03:27:39;99838.38;;;11.18;100.00
3434;BME280;1730;41.932;25.548;2023-05-08T03:30:06;99842.19;;;11.16;100.00
3434;BME280;1730;41.932;25.548;2023-05-08T03:32:34;99854.16;;;11.13;100.00
3434;BME280;1730;41.932;25.548;2023-05-08T03:35:00;99842.50;;;11.22;100.00
3434;BME280;1730;41.932;25.548;2023-05-08T03:37:28;99856.84;;;11.13;100.00
3434;BME280;1730;41.932;25.548;2023-05-08T03:39:54;99490.22;;;9.15;100.00
3434;BME280;1730;41.932;25.548;2023-05-08T03:42:22;99484.84;;;9.34;100.00
3434;BME280;1730;41.932;25.548;2023-05-08T03:44:51;99640.19;;;10.47;100.00
3434;BME280;1730;41.932;25.548;2023-05-08T03:47:19;99779.16;;;11.54;100.00
3434;BME280;1730;41.932;25.548;2023-05-08T03:49:45;99653.13;;;10.80;100.00
3434;BME280;1730;41.932;25.548;2023-05-08T03:52:14;99758.31;;;11.73;100.00
3434;BME280;1730;41.932;25.548;2023-05-08T03:54:41;99743.38;;;11.69;100.00
3434;BME280;1730;41.932;25.548;2023-05-08T03:57:07;99717.97;;;11.62;100.00
3434;BME280;1730;41.932;25.548;2023-05-08T04:02:49;99739.38;;;11.73;100.00
3434;BME280;1730;41.932;25.548;2023-05-08T04:05:20;99736.25;;;11.68;100.00
3434;BME280;1730;41.932;25.548;2023-05-08T04:07:52;99766.00;;;11.59;100.00
3434;BME280;1730;41.932;25.548;2023-05-08T04:15:28;99651.00;;;13.22;100.00
3434;BME280;1730;41.932;25.548;2023-05-08T04:17:58;99523.00;;;13.12;100.00
3434;BME280;1730;41.932;25.548;2023-05-08T04:20:28;99585.28;;;13.86;100.00
3434;BME280;1730;41.932;25.548;2023-05-08T04:22:54;99574.75;;;14.32;100.00
3434;BME280;1730;41.932;25.548;2023-05-08T04:25:22;99532.38;;;14.15;100.00
3434;BME280;1730;41.932;25.548;2023-05-08T04:27:48;99529.66;;;14.23;100.00
3434;BME280;1730;41.932;25.548;2023-05-08T04:30:15;99220.81;;;12.95;100.00
3434;BME280;1730;41.932;25.548;2023-05-08T04:32:42;99226.91;;;12.73;100.00
3434;BME280;1730;41.932;25.548;2023-05-08T04:35:09;99524.44;;;14.21;100.00
3434;BME280;1730;41.932;25.548;2023-05-08T04:37:35;99534.09;;;14.79;100.00
3434;BME280;1730;41.932;25.548;2023-05-08T04:40:01;99521.19;;;14.81;100.00
3434;BME280;1730;41.932;25.548;2023-05-08T04:42:29;99518.81;;;14.86;100.00
3434;BME280;1730;41.932;25.548;2023-05-08T04:44:54;99412.66;;;14.34;100.00
3434;BME280;1730;41.932;25.548;2023-05-08T04:47:20;99492.56;;;15.77;100.00
3434;BME280;1730;41.932;25.548;2023-05-08T04:49:45;99487.09;;;16.15;100.00
3434;BME280;1730;41.932;25.548;2023-05-08T04:52:11;99473.88;;;16.41;100.00
3434;BME280;1730;41.932;25.548;2023-05-08T04:54:37;99221.53;;;15.34;100.00
3434;BME280;1730;41.932;25.548;2023-05-08T04:57:02;99353.78;;;16.15;100.00
3434;BME280;1730;41.932;25.548;2023-05-08T04:59:28;99442.38;;;17.54;100.00
3434;BME280;1730;41.932;25.548;2023-05-08T05:01:55;99434.97;;;17.97;100.00
3434;BME280;1730;41.932;25.548;2023-05-08T05:04:21;99430.19;;;18.75;100.00
3434;BME280;1730;41.932;25.548;2023-05-08T05:06:46;99294.41;;;17.67;100.00
3434;BME280;1730;41.932;25.548;2023-05-08T05:09:12;99283.13;;;17.21;100.00
3434;BME280;1730;41.932;25.548;2023-05-08T05:11:37;99415.97;;;18.92;100.00
3434;BME280;1730;41.932;25.548;2023-05-08T05:14:03;99409.34;;;19.34;100.00
3434;BME280;1730;41.932;25.548;2023-05-08T05:16:28;99416.38;;;17.80;100.00
3434;BME280;1730;41.932;25.548;2023-05-08T05:18:54;99340.59;;;17.26;100.00
3434;BME280;1730;41.932;25.548;2023-05-08T05:21:20;99426.56;;;19.28;100.00
3434;BME280;1730;41.932;25.548;2023-05-08T05:23:45;99392.53;;;19.84;100.00
3434;BME280;1730;41.932;25.548;2023-05-08T05:26:11;99383.72;;;20.59;100.00
3434;BME280;1730;41.932;25.548;2023-05-08T05:28:36;99310.41;;;19.84;100.00
3434;BME280;1730;41.932;25.548;2023-05-08T05:31:02;99414.66;;;21.24;100.00
3434;BME280;1730;41.932;25.548;2023-05-08T05:33:28;99414.56;;;21.37;100.00
3434;BME280;1730;41.932;25.548;2023-05-08T05:35:54;99414.22;;;21.20;100.00
3434;BME280;1730;41.932;25.548;2023-05-08T05:38:19;99416.84;;;20.51;100.00
3434;BME280;1730;41.932;25.548;2023-05-08T05:40:45;99417.03;;;21.13;100.00
3434;BME280;1730;41.932;25.548;2023-05-08T05:43:10;99392.47;;;20.87;100.00
3434;BME280;1730;41.932;25.548;2023-05-08T05:45:36;99410.44;;;21.52;100.00
3434;BME280;1730;41.932;25.548;2023-05-08T05:48:02;99413.94;;;20.97;100.00
3434;BME280;1730;41.932;25.548;2023-05-08T05:50:27;99416.84;;;21.02;100.00
3434;BME280;1730;41.932;25.548;2023-05-08T05:52:55;99414.66;;;22.05;99.78
3434;BME280;1730;41.932;25.548;2023-05-08T05:55:21;99413.56;;;20.87;100.00
3434;BME280;1730;41.932;25.548;2023-05-08T05:57:47;99411.28;;;21.78;100.00
3434;BME280;1730;41.932;25.548;2023-05-08T06:00:13;99289.19;;;20.43;100.00
3434;BME280;1730;41.932;25.548;2023-05-08T06:02:39;99410.09;;;21.92;99.33
3434;BME280;1730;41.932;25.548;2023-05-08T06:05:06;99407.28;;;21.11;100.00
3434;BME280;1730;41.932;25.548;2023-05-08T06:07:32;99410.31;;;21.97;95.21
3434;BME280;1730;41.932;25.548;2023-05-08T06:09:57;99410.62;;;22.07;88.83
3434;BME280;1730;41.932;25.548;2023-05-08T06:12:24;99405.50;;;21.36;94.62
3434;BME280;1730;41.932;25.548;2023-05-08T06:14:53;99404.88;;;22.33;91.27
3434;BME280;1730;41.932;25.548;2023-05-08T06:17:19;99129.44;;;21.17;81.90
3434;BME280;1730;41.932;25.548;2023-05-08T06:19:45;99123.44;;;20.84;87.61
3434;BME280;1730;41.932;25.548;2023-05-08T06:22:15;99386.91;;;22.67;88.37
3434;BME280;1730;41.932;25.548;2023-05-08T06:24:42;99386.59;;;22.21;90.78
3434;BME280;1730;41.932;25.548;2023-05-08T06:27:08;99388.41;;;23.00;84.61
3434;BME280;1730;41.932;25.548;2023-05-08T06:29:34;99383.22;;;23.21;79.61
3434;BME280;1730;41.932;25.548;2023-05-08T06:31:59;99375.97;;;22.61;88.23
3434;BME280;1730;41.932;25.548;2023-05-08T06:34:26;99382.00;;;22.51;88.30
3434;BME280;1730;41.932;25.548;2023-05-08T06:36:53;99388.97;;;21.43;96.64
3434;BME280;1730;41.932;25.548;2023-05-08T06:39:18;99385.91;;;21.57;97.67
3434;BME280;1730;41.932;25.548;2023-05-08T06:41:47;99381.47;;;21.32;100.00
3434;BME280;1730;41.932;25.548;2023-05-08T06:44:13;99378.13;;;21.79;99.72
3434;BME280;1730;41.932;25.548;2023-05-08T06:46:39;99382.31;;;22.25;92.00
3434;BME280;1730;41.932;25.548;2023-05-08T06:49:04;99091.38;;;20.35;94.44
3434;BME280;1730;41.932;25.548;2023-05-08T06:51:30;99271.88;;;21.80;92.95
3434;BME280;1730;41.932;25.548;2023-05-08T06:53:56;99325.25;;;22.45;90.29
3434;BME280;1730;41.932;25.548;2023-05-08T06:56:21;99328.28;;;21.57;99.21
3434;BME280;1730;41.932;25.548;2023-05-08T06:58:48;99277.59;;;21.78;94.41
3434;BME280;1730;41.932;25.548;2023-05-08T07:01:14;99368.72;;;22.66;89.44
3434;BME280;1730;41.932;25.548;2023-05-08T07:03:40;99261.63;;;21.93;91.72
3434;BME280;1730;41.932;25.548;2023-05-08T07:06:07;99334.03;;;22.35;93.23
3434;BME280;1730;41.932;25.548;2023-05-08T07:08:36;99359.63;;;23.14;87.98
3434;BME280;1730;41.932;25.548;2023-05-08T07:11:02;99364.84;;;22.56;89.39
3434;BME280;1730;41.932;25.548;2023-05-08T07:13:28;99366.22;;;21.85;98.85
3434;BME280;1730;41.932;25.548;2023-05-08T07:15:53;99316.19;;;21.83;100.00
3434;BME280;1730;41.932;25.548;2023-05-08T07:18:20;99366.00;;;22.48;98.20
3434;BME280;1730;41.932;25.548;2023-05-08T07:20:45;99265.34;;;21.13;100.00
3434;BME280;1730;41.932;25.548;2023-05-08T07:23:11;99363.09;;;22.43;100.00
3434;BME280;1730;41.932;25.548;2023-05-08T07:25:36;99353.34;;;22.11;100.00
3434;BME280;1730;41.932;25.548;2023-05-08T07:28:02;99356.75;;;22.06;100.00
3434;BME280;1730;41.932;25.548;2023-05-08T07:30:28;99312.41;;;22.21;100.00
3434;BME280;1730;41.932;25.548;2023-05-08T07:32:53;99330.44;;;22.35;100.00
3434;BME280;1730;41.932;25.548;2023-05-08T07:35:19;99298.69;;;22.21;100.00
3434;BME280;1730;41.932;25.548;2023-05-08T07:37:44;99331.37;;;22.29;100.00
3434;BME280;1730;41.932;25.548;2023-05-08T07:40:10;99351.09;;;22.74;100.00
3434;BME280;1730;41.932;25.548;2023-05-08T07:42:40;99350.41;;;21.63;100.00
3434;BME280;1730;41.932;25.548;2023-05-08T07:45:08;99258.62;;;20.78;100.00
3434;BME280;1730;41.932;25.548;2023-05-08T07:47:34;99356.00;;;21.49;100.00
3434;BME280;1730;41.932;25.548;2023-05-08T07:50:00;99351.81;;;21.90;100.00
3434;BME280;1730;41.932;25.548;2023-05-08T07:52:25;99219.25;;;20.97;100.00
3434;BME280;1730;41.932;25.548;2023-05-08T07:54:51;99350.12;;;21.71;100.00
3434;BME280;1730;41.932;25.548;2023-05-08T07:57:16;99347.38;;;21.71;100.00
3434;BME280;1730;41.932;25.548;2023-05-08T07:59:42;99350.16;;;21.89;100.00
3434;BME280;1730;41.932;25.548;2023-05-08T08:02:07;99347.75;;;22.17;100.00
3434;BME280;1730;41.932;25.548;2023-05-08T08:04:33;99338.87;;;21.54;100.00
3434;BME280;1730;41.932;25.548;2023-05-08T08:06:59;99340.13;;;21.27;100.00
3434;BME280;1730;41.932;25.548;2023-05-08T08:09:24;99333.41;;;21.47;100.00
3434;BME280;1730;41.932;25.548;2023-05-08T08:11:50;99054.56;;;19.93;100.00
3434;BME280;1730;41.932;25.548;2023-05-08T08:14:16;99265.72;;;20.85;100.00
3434;BME280;1730;41.932;25.548;2023-05-08T08:16:41;99336.59;;;21.20;100.00
3434;BME280;1730;41.932;25.548;2023-05-08T08:19:07;99331.50;;;21.97;100.00
3434;BME280;1730;41.932;25.548;2023-05-08T08:21:33;99331.44;;;22.40;100.00
3434;BME280;1730;41.932;25.548;2023-05-08T08:23:58;99306.94;;;22.02;100.00
3434;BME280;1730;41.932;25.548;2023-05-08T08:26:24;99326.78;;;21.37;100.00
3434;BME280;1730;41.932;25.548;2023-05-08T08:28:49;99124.75;;;20.50;100.00
3434;BME280;1730;41.932;25.548;2023-05-08T08:31:16;99329.84;;;21.90;100.00
3434;BME280;1730;41.932;25.548;2023-05-08T08:33:42;99229.53;;;21.51;100.00
3434;BME280;1730;41.932;25.548;2023-05-08T08:36:14;99314.09;;;22.22;100.00
3434;BME280;1730;41.932;25.548;2023-05-08T08:38:41;99311.09;;;21.87;100.00
3434;BME280;1730;41.932;25.548;2023-05-08T08:41:07;99311.12;;;21.62;100.00
3434;BME280;1730;41.932;25.548;2023-05-08T08:43:33;99316.84;;;21.61;100.00
3434;BME280;1730;41.932;25.548;2023-05-08T08:46:02;99310.19;;;21.25;100.00
3434;BME280;1730;41.932;25.548;2023-05-08T08:48:36;99307.44;;;21.25;100.00
3434;BME280;1730;41.932;25.548;2023-05-08T08:51:05;99305.16;;;21.22;100.00
3434;BME280;1730;41.932;25.548;2023-05-08T08:53:42;99299.00;;;21.27;100.00
3434;BME280;1730;41.932;25.548;2023-05-08T08:56:11;99332.78;;;21.21;100.00
3434;BME280;1730;41.932;25.548;2023-05-08T08:58:47;99293.22;;;21.03;100.00
3434;BME280;1730;41.932;25.548;2023-05-08T09:01:17;99199.28;;;20.58;100.00
3434;BME280;1730;41.932;25.548;2023-05-08T09:03:43;99285.50;;;21.68;100.00
3434;BME280;1730;41.932;25.548;2023-05-08T09:06:10;99281.19;;;21.79;100.00
3434;BME280;1730;41.932;25.548;2023-05-08T09:08:37;99265.44;;;21.68;100.00
3434;BME280;1730;41.932;25.548;2023-05-08T09:11:03;99277.69;;;21.47;100.00
3434;BME280;1730;41.932;25.548;2023-05-08T09:13:28;99219.00;;;21.48;100.00
3434;BME280;1730;41.932;25.548;2023-05-08T09:15:54;99259.25;;;22.15;100.00
3434;BME280;1730;41.932;25.548;2023-05-08T09:18:21;99274.59;;;22.71;100.00
3434;BME280;1730;41.932;25.548;2023-05-08T09:20:47;99277.34;;;23.12;100.00
3434;BME280;1730;41.932;25.548;2023-05-08T09:23:14;99273.97;;;23.10;100.00
3434;BME280;1730;41.932;25.548;2023-05-08T09:25:47;99269.31;;;22.69;100.00
3434;BME280;1730;41.932;25.548;2023-05-08T09:28:21;99275.88;;;22.98;100.00
3434;BME280;1730;41.932;25.548;2023-05-08T09:30:57;99265.59;;;23.17;100.00
3434;BME280;1730;41.932;25.548;2023-05-08T09:33:25;99255.22;;;23.30;100.00
3434;BME280;1730;41.932;25.548;2023-05-08T09:35:51;99263.09;;;23.15;100.00
3434;BME280;1730;41.932;25.548;2023-05-08T09:38:36;99248.84;;;23.07;100.00
3434;BME280;1730;41.932;25.548;2023-05-08T09:41:12;99256.97;;;22.90;100.00
3434;BME280;1730;41.932;25.548;2023-05-08T09:43:40;99251.03;;;22.75;100.00
3434;BME280;1730;41.932;25.548;2023-05-08T09:48:43;99250.72;;;22.65;100.00
3434;BME280;1730;41.932;25.548;2023-05-08T09:51:10;99218.03;;;22.33;100.00
3434;BME280;1730;41.932;25.548;2023-05-08T09:53:36;99247.78;;;23.08;100.00
3434;BME280;1730;41.932;25.548;2023-05-08T09:56:03;99244.09;;;23.37;100.00
3434;BME280;1730;41.932;25.548;2023-05-08T09:58:58;99245.16;;;23.36;100.00
3434;BME280;1730;41.932;25.548;2023-05-08T10:01:31;99236.47;;;23.62;100.00
3434;BME280;1730;41.932;25.548;2023-05-08T10:03:58;99187.88;;;23.45;99.88
3434;BME280;1730;41.932;25.548;2023-05-08T10:06:23;99231.78;;;23.74;99.37
3434;BME280;1730;41.932;25.548;2023-05-08T10:09:13;99222.44;;;23.75;100.00
3434;BME280;1730;41.932;25.548;2023-05-08T10:11:40;99215.53;;;24.13;100.00
3434;BME280;1730;41.932;25.548;2023-05-08T10:14:07;99217.06;;;23.69;100.00
3434;BME280;1730;41.932;25.548;2023-05-08T10:16:44;99223.03;;;23.31;100.00
3434;BME280;1730;41.932;25.548;2023-05-08T10:19:15;99204.84;;;23.42;100.00
3434;BME280;1730;41.932;25.548;2023-05-08T10:21:44;99208.91;;;23.86;100.00
3434;BME280;1730;41.932;25.548;2023-05-08T10:24:48;99207.97;;;23.68;100.00
3434;BME280;1730;41.932;25.548;2023-05-08T10:27:19;99213.09;;;23.76;100.00
3434;BME280;1730;41.932;25.548;2023-05-08T10:29:53;99210.63;;;23.52;100.00
3434;BME280;1730;41.932;25.548;2023-05-08T10:32:20;99207.59;;;23.76;100.00
3434;BME280;1730;41.932;25.548;2023-05-08T10:34:57;99199.94;;;23.67;100.00
3434;BME280;1730;41.932;25.548;2023-05-08T10:37:23;99197.22;;;23.55;100.00
3434;BME280;1730;41.932;25.548;2023-05-08T10:39:49;99060.69;;;22.50;100.00
3434;BME280;1730;41.932;25.548;2023-05-08T10:42:16;99104.47;;;23.09;100.00
3434;BME280;1730;41.932;25.548;2023-05-08T10:44:42;99189.28;;;23.82;97.57
3434;BME280;1730;41.932;25.548;2023-05-08T10:47:26;99153.59;;;23.75;97.32
3434;BME280;1730;41.932;25.548;2023-05-08T10:53:18;99181.66;;;24.41;89.28
3434;BME280;1730;41.932;25.548;2023-05-08T10:55:22;98839.50;;;22.52;90.98
3434;BME280;1730;41.932;25.548;2023-05-08T10:58:42;99170.44;;;23.91;91.24
3434;BME280;1730;41.932;25.548;2023-05-08T11:03:36;99168.75;;;24.30;80.33
3434;BME280;1730;41.932;25.548;2023-05-08T11:06:02;99158.44;;;23.97;82.95
3434;BME280;1730;41.932;25.548;2023-05-08T11:08:30;99162.22;;;24.19;78.64
3434;BME280;1730;41.932;25.548;2023-05-08T11:13:32;99159.31;;;24.14;77.90
3434;BME280;1730;41.932;25.548;2023-05-08T11:15:58;99154.78;;;24.64;77.18
3434;BME280;1730;41.932;25.548;2023-05-08T11:18:24;99059.53;;;23.95;76.40
3434;BME280;1730;41.932;25.548;2023-05-08T11:21:01;99151.84;;;24.54;77.54
3434;BME280;1730;41.932;25.548;2023-05-08T11:23:32;99152.47;;;24.90;73.80
3434;BME280;1730;41.932;25.548;2023-05-08T11:28:26;99064.78;;;24.25;75.05
3434;BME280;1730;41.932;25.548;2023-05-08T11:30:53;99140.59;;;24.89;77.07
3434;BME280;1730;41.932;25.548;2023-05-08T11:33:22;99056.78;;;24.57;76.20
3434;BME280;1730;41.932;25.548;2023-05-08T11:35:57;99142.84;;;25.64;77.60
3434;BME280;1730;41.932;25.548;2023-05-08T11:38:32;99144.41;;;25.38;79.65
3434;BME280;1730;41.932;25.548;2023-05-08T11:41:06;99140.91;;;25.26;80.94
3434;BME280;1730;41.932;25.548;2023-05-08T11:46:01;99135.09;;;24.44;86.39
3434;BME280;1730;41.932;25.548;2023-05-08T11:48:28;99132.47;;;24.83;83.62
3434;BME280;1730;41.932;25.548;2023-05-08T11:50:54;99005.31;;;23.84;86.08
3434;BME280;1730;41.932;25.548;2023-05-08T11:53:20;99140.78;;;24.99;83.62
3434;BME280;1730;41.932;25.548;2023-05-08T11:55:50;99118.50;;;25.06;84.55
3434;BME280;1730;41.932;25.548;2023-05-08T11:58:16;98896.91;;;23.90;82.05
3434;BME280;1730;41.932;25.548;2023-05-08T12:00:43;99116.63;;;25.28;80.45
3434;BME280;1730;41.932;25.548;2023-05-08T12:03:17;99109.94;;;24.86;84.35
3434;BME280;1730;41.932;25.548;2023-05-08T12:05:43;99107.31;;;24.62;87.27
3434;BME280;1730;41.932;25.548;2023-05-08T12:08:10;98959.25;;;24.13;87.01
3434;BME280;1730;41.932;25.548;2023-05-08T12:13:22;99096.69;;;24.71;82.99
3434;BME280;1730;41.932;25.548;2023-05-08T12:15:51;99059.66;;;24.84;83.77
3434;BME280;1730;41.932;25.548;2023-05-08T12:18:21;99077.75;;;24.91;80.05
3434;BME280;1730;41.932;25.548;2023-05-08T12:20:51;98819.66;;;23.35;80.82
3434;BME280;1730;41.932;25.548;2023-05-08T12:23:17;98980.66;;;24.39;79.26
3434;BME280;1730;41.932;25.548;2023-05-08T12:25:43;99099.03;;;25.12;80.15
3434;BME280;1730;41.932;25.548;2023-05-08T12:28:09;99075.34;;;25.55;75.98
3434;BME280;1730;41.932;25.548;2023-05-08T12:30:35;99072.69;;;25.87;75.88
3434;BME280;1730;41.932;25.548;2023-05-08T12:33:01;99006.28;;;25.55;71.62
3434;BME280;1730;41.932;25.548;2023-05-08T12:35:29;99072.84;;;26.24;69.37
3434;BME280;1730;41.932;25.548;2023-05-08T12:38:02;98988.56;;;25.78;67.38
3434;BME280;1730;41.932;25.548;2023-05-08T12:40:30;99069.47;;;26.22;68.16
3434;BME280;1730;41.932;25.548;2023-05-08T12:42:56;99062.59;;;25.54;68.31
3434;BME280;1730;41.932;25.548;2023-05-08T12:45:41;98982.72;;;24.49;74.55
3434;BME280;1730;41.932;25.548;2023-05-08T12:48:08;99023.13;;;25.32;72.59
3434;BME280;1730;41.932;25.548;2023-05-08T12:50:36;99017.37;;;25.38;70.94
3434;BME280;1730;41.932;25.548;2023-05-08T12:53:10;99044.75;;;25.40;71.38
3434;BME280;1730;41.932;25.548;2023-05-08T12:55:38;99051.16;;;25.45;73.00
3434;BME280;1730;41.932;25.548;2023-05-08T12:58:10;98967.31;;;25.08;71.77
3434;BME280;1730;41.932;25.548;2023-05-08T13:00:41;99040.41;;;25.66;70.59
3434;BME280;1730;41.932;25.548;2023-05-08T13:03:08;99043.53;;;25.52;72.48
3434;BME280;1730;41.932;25.548;2023-05-08T13:05:40;99046.06;;;25.37;71.77
3434;BME280;1730;41.932;25.548;2023-05-08T13:08:07;99051.00;;;24.92;73.97
3434;BME280;1730;41.932;25.548;2023-05-08T13:10:50;99050.72;;;25.32;74.92
3434;BME280;1730;41.932;25.548;2023-05-08T13:13:18;99048.22;;;25.52;71.39
3434;BME280;1730;41.932;25.548;2023-05-08T13:15:43;99042.38;;;25.70;71.43
3434;BME280;1730;41.932;25.548;2023-05-08T13:18:09;98962.63;;;25.08;67.68
3434;BME280;1730;41.932;25.548;2023-05-08T13:20:36;99046.53;;;25.51;70.52
3434;BME280;1730;41.932;25.548;2023-05-08T13:23:02;99054.88;;;25.78;67.27
3434;BME280;1730;41.932;25.548;2023-05-08T13:25:29;99053.34;;;26.14;65.58
3434;BME280;1730;41.932;25.548;2023-05-08T13:27:55;99051.88;;;26.06;65.36
3434;BME280;1730;41.932;25.548;2023-05-08T13:30:21;99047.34;;;26.22;65.25
3434;BME280;1730;41.932;25.548;2023-05-08T13:32:48;99044.69;;;25.78;68.11
3434;BME280;1730;41.932;25.548;2023-05-08T13:35:13;99021.19;;;25.81;66.77
3434;BME280;1730;41.932;25.548;2023-05-08T13:37:39;99038.72;;;25.65;67.90
3434;BME280;1730;41.932;25.548;2023-05-08T13:40:05;99032.59;;;25.84;67.14
3434;BME280;1730;41.932;25.548;2023-05-08T13:42:31;99040.19;;;25.99;66.91
3434;BME280;1730;41.932;25.548;2023-05-08T13:44:56;98970.28;;;25.50;65.52
3434;BME280;1730;41.932;25.548;2023-05-08T13:47:22;99048.78;;;25.54;68.91
3434;BME280;1730;41.932;25.548;2023-05-08T13:49:47;99031.75;;;25.84;67.76
3434;BME280;1730;41.932;25.548;2023-05-08T13:52:15;99029.94;;;26.21;66.43
3434;BME280;1730;41.932;25.548;2023-05-08T13:54:41;99020.44;;;26.44;64.27
3434;BME280;1730;41.932;25.548;2023-05-08T13:57:07;99026.28;;;26.48;66.84
3434;BME280;1730;41.932;25.548;2023-05-08T13:59:33;99030.53;;;26.23;64.91
3434;BME280;1730;41.932;25.548;2023-05-08T14:01:58;99006.34;;;26.14;66.77
3434;BME280;1730;41.932;25.548;2023-05-08T14:04:24;99026.63;;;26.56;68.15